createdAt,value
2022-08-11T00:01:16.198Z,2.37
2022-08-11T00:03:54.144Z,2.40
2022-08-11T00:06:28.622Z,2.33
2022-08-11T00:08:59.029Z,2.50
2022-08-11T00:11:36.629Z,2.40
2022-08-11T00:14:13.903Z,2.30
2022-08-11T00:16:46.483Z,1.97
2022-08-11T00:20:13.672Z,1.80
2022-08-11T00:22:20.817Z,2.17
2022-08-11T00:24:54.752Z,2.17
2022-08-11T00:27:34.619Z,2.13
2022-08-11T00:30:05.554Z,2.10
2022-08-11T00:32:38.186Z,1.93
2022-08-11T00:35:55.380Z,2.50
2022-08-11T00:38:02.374Z,2.23
2022-08-11T00:40:40.355Z,2.40
2022-08-11T00:43:23.229Z,1.90
2022-08-11T00:46:15.042Z,2.13
2022-08-11T00:49:00.481Z,2.17
2022-08-11T00:52:02.212Z,2.60
2022-08-11T00:55:19.385Z,2.33
2022-08-11T00:58:37.407Z,2.10
2022-08-11T01:01:28.602Z,1.83
2022-08-11T01:04:39.291Z,1.90
2022-08-11T01:08:01.308Z,2.20
2022-08-11T01:11:03.171Z,2.07
2022-08-11T01:14:02.601Z,1.90
2022-08-11T01:17:08.925Z,2.03
2022-08-11T01:20:46.457Z,1.80
2022-08-11T01:23:29.200Z,1.93
2022-08-11T01:26:31.727Z,2.35
2022-08-11T01:29:41.851Z,2.10
2022-08-11T01:32:51.061Z,2.00
2022-08-11T01:35:37.384Z,2.17
2022-08-11T01:38:38.105Z,2.03
2022-08-11T01:41:47.883Z,2.70
2022-08-11T01:44:43.066Z,2.30
2022-08-11T01:47:54.272Z,1.80
2022-08-11T01:50:47.959Z,2.20
2022-08-11T01:53:29.818Z,2.17
2022-08-11T01:56:11.678Z,2.83
2022-08-11T01:58:46.928Z,2.30
2022-08-11T02:01:38.349Z,2.77
2022-08-11T02:04:18.993Z,2.90
2022-08-11T02:06:56.489Z,3.23
2022-08-11T02:09:51.790Z,2.87
2022-08-11T02:12:36.309Z,2.70
2022-08-11T02:15:15.123Z,3.03
2022-08-11T02:17:59.748Z,2.70
2022-08-11T02:20:50.544Z,2.83
2022-08-11T02:24:06.670Z,2.70
2022-08-11T02:26:41.179Z,2.40
2022-08-11T02:29:19.910Z,2.87
2022-08-11T02:32:28.509Z,2.90
2022-08-11T02:35:10.984Z,2.43
2022-08-11T02:37:51.204Z,2.67
2022-08-11T02:40:32.420Z,2.93
2022-08-11T02:43:12.017Z,2.07
2022-08-11T02:45:56.338Z,2.57
2022-08-11T02:48:58.924Z,2.40
2022-08-11T02:51:40.554Z,2.93
2022-08-11T02:54:18.603Z,2.73
2022-08-11T02:56:55.784Z,2.60
2022-08-11T02:59:53.238Z,2.70
2022-08-11T03:03:00.455Z,2.80
2022-08-11T03:05:55.206Z,3.23
2022-08-11T03:08:41.667Z,3.13
2022-08-11T03:11:34.961Z,3.07
2022-08-11T03:14:34.243Z,2.70
2022-08-11T03:17:17.476Z,3.10
2022-08-11T03:19:56.539Z,2.40
2022-08-11T03:22:31.346Z,2.37
2022-08-11T03:25:04.958Z,2.80
2022-08-11T03:27:49.704Z,3.03
2022-08-11T03:30:26.540Z,2.43
2022-08-11T03:33:34.056Z,2.70
2022-08-11T03:36:21.172Z,2.47
2022-08-11T03:39:02.181Z,2.50
2022-08-11T03:42:03.649Z,2.67
2022-08-11T03:44:55.730Z,2.60
2022-08-11T03:47:38.240Z,2.77
2022-08-11T03:50:17.309Z,3.00
2022-08-11T03:52:59.210Z,2.57
2022-08-11T03:55:41.027Z,2.73
2022-08-11T03:58:42.031Z,2.60
2022-08-11T04:01:49.128Z,2.77
2022-08-11T04:04:57.745Z,2.53
2022-08-11T04:08:08.509Z,3.10
2022-08-11T04:11:05.300Z,3.03
2022-08-11T04:14:19.094Z,3.30
2022-08-11T04:16:54.964Z,3.07
2022-08-11T04:20:01.976Z,3.10
2022-08-11T04:22:50.937Z,2.90
2022-08-11T04:25:51.048Z,3.00
2022-08-11T04:28:56.955Z,2.63
2022-08-11T04:31:51.758Z,3.27
2022-08-11T04:34:38.202Z,3.07
2022-08-11T04:37:35.633Z,3.00
2022-08-11T04:40:37.635Z,2.70
2022-08-11T04:44:05.840Z,2.63
2022-08-11T04:47:02.714Z,2.80
2022-08-11T04:50:19.420Z,2.80
2022-08-11T04:53:33.557Z,2.80
2022-08-11T04:56:30.588Z,2.97
2022-08-11T04:59:43.809Z,2.73
2022-08-11T05:02:57.817Z,2.43
2022-08-11T05:05:42.270Z,2.57
2022-08-11T05:09:25.833Z,2.87
2022-08-11T05:12:30.927Z,3.33
2022-08-11T05:15:19.188Z,2.93
2022-08-11T05:18:12.454Z,3.00
2022-08-11T05:21:05.971Z,2.93
2022-08-11T05:23:58.265Z,2.53
2022-08-11T05:26:49.135Z,2.90
2022-08-11T05:29:58.737Z,2.80
2022-08-11T05:32:52.422Z,2.50
2022-08-11T05:36:01.449Z,2.30
2022-08-11T05:38:41.806Z,2.50
2022-08-11T05:41:31.506Z,3.03
2022-08-11T05:44:22.289Z,2.37
2022-08-11T05:47:12.277Z,2.27
2022-08-11T05:50:00.890Z,2.20
2022-08-11T05:52:55.250Z,2.22
2022-08-11T05:56:02.876Z,1.55
2022-08-11T05:58:42.300Z,1.40
2022-08-11T06:01:14.201Z,1.00
2022-08-11T06:04:04.581Z,1.38
2022-08-11T06:06:34.167Z,1.10
2022-08-11T06:09:04.196Z,1.20
2022-08-11T06:11:43.010Z,1.35
2022-08-11T06:14:13.586Z,1.48
2022-08-11T06:16:43.841Z,1.20
2022-08-11T06:19:14.830Z,1.20
2022-08-11T06:21:48.857Z,0.98
2022-08-11T06:24:18.376Z,1.33
2022-08-11T06:27:11.674Z,1.02
2022-08-11T06:29:55.016Z,0.93
2022-08-11T06:32:30.105Z,1.20
2022-08-11T06:35:27.018Z,1.30
2022-08-11T06:38:07.330Z,1.10
2022-08-11T06:40:42.995Z,1.00
2022-08-11T06:43:20.089Z,0.85
2022-08-11T06:45:56.319Z,0.95
2022-08-11T06:48:27.184Z,1.08
2022-08-11T06:51:12.784Z,1.23
2022-08-11T06:53:56.346Z,1.00
2022-08-11T07:00:03.868Z,1.10
2022-08-11T07:02:38.169Z,1.35
2022-08-11T07:05:13.466Z,1.00
2022-08-11T07:08:44.123Z,1.98
2022-08-11T07:11:57.023Z,1.10
2022-08-11T07:14:46.503Z,0.80
2022-08-11T07:17:18.907Z,1.17
2022-08-11T07:20:10.599Z,1.10
2022-08-11T07:23:05.369Z,0.90
2022-08-11T07:25:58.257Z,1.20
2022-08-11T07:28:47.750Z,1.08
2022-08-11T07:31:22.951Z,0.93
2022-08-11T07:34:08.492Z,1.15
2022-08-11T07:36:43.259Z,1.05
2022-08-11T07:39:18.065Z,0.90
2022-08-11T07:41:50.012Z,0.77
2022-08-11T07:44:19.957Z,0.90
2022-08-11T07:47:09.028Z,1.23
2022-08-11T07:49:57.991Z,1.15
2022-08-11T07:52:34.657Z,1.23
2022-08-11T07:55:05.948Z,0.88
2022-08-11T07:58:15.868Z,0.90
2022-08-11T08:01:10.420Z,1.10
2022-08-11T08:04:04.355Z,1.00
2022-08-11T08:06:52.884Z,1.00
2022-08-11T08:09:41.488Z,1.02
2022-08-11T08:12:28.649Z,1.30
2022-08-11T08:15:17.440Z,1.10
2022-08-11T08:18:20.996Z,0.80
2022-08-11T08:20:43.787Z,1.00
2022-08-11T08:23:13.918Z,1.00
2022-08-11T08:25:45.933Z,1.23
2022-08-11T08:28:18.433Z,1.20
2022-08-11T08:30:52.446Z,1.02
2022-08-11T08:33:23.714Z,1.08
2022-08-11T08:36:11.753Z,1.00
2022-08-11T08:38:42.239Z,1.10
2022-08-11T08:41:13.338Z,1.38
2022-08-11T08:43:50.041Z,1.20
2022-08-11T08:46:26.682Z,1.50
2022-08-11T08:48:56.913Z,0.90
2022-08-11T08:51:54.882Z,1.42
2022-08-11T08:54:31.351Z,0.98
2022-08-11T08:57:05.509Z,0.93
2022-08-11T08:59:49.221Z,1.02
2022-08-11T09:02:44.001Z,1.17
2022-08-11T09:05:13.792Z,1.02
2022-08-11T09:07:47.032Z,0.80
2022-08-11T09:10:19.959Z,1.02
2022-08-11T09:12:51.571Z,0.93
2022-08-11T09:15:22.291Z,1.00
2022-08-11T09:17:58.185Z,1.02
2022-08-11T09:20:29.500Z,1.20
2022-08-11T09:26:30.502Z,0.85
2022-08-11T09:29:01.651Z,0.80
2022-08-11T09:31:39.439Z,0.93
2022-08-11T09:34:12.687Z,0.82
2022-08-11T09:37:01.897Z,1.00
2022-08-11T09:39:51.223Z,1.08
2022-08-11T09:42:23.813Z,0.70
2022-08-11T09:44:54.006Z,0.88
2022-08-11T09:47:25.397Z,0.70
2022-08-11T09:50:01.322Z,0.90
2022-08-11T09:52:33.291Z,0.90
2022-08-11T09:55:10.915Z,0.63
2022-08-11T09:58:05.480Z,0.70
2022-08-11T10:00:37.549Z,0.50
2022-08-11T10:03:10.906Z,0.77
2022-08-11T10:06:07.758Z,0.80
2022-08-11T10:08:41.766Z,0.75
2022-08-11T10:11:15.262Z,0.70
2022-08-11T10:14:33.031Z,0.68
2022-08-11T10:16:54.101Z,0.70
2022-08-11T10:19:24.351Z,0.88
2022-08-11T10:22:13.782Z,0.70
2022-08-11T10:25:02.731Z,0.50
2022-08-11T10:28:17.147Z,0.70
2022-08-11T10:30:42.329Z,0.60
2022-08-11T10:33:37.707Z,0.85
2022-08-11T10:36:15.979Z,0.80
2022-08-11T10:38:51.352Z,0.77
2022-08-11T10:42:01.848Z,1.15
2022-08-11T10:44:29.454Z,1.88
2022-08-11T10:47:16.263Z,2.17
2022-08-11T10:50:05.762Z,1.70
2022-08-11T10:52:53.200Z,1.50
2022-08-11T10:55:42.029Z,1.67
2022-08-11T10:58:29.734Z,1.52
2022-08-11T11:01:00.754Z,1.25
2022-08-11T11:03:34.612Z,1.10
2022-08-11T11:06:27.585Z,0.80
2022-08-11T11:09:05.148Z,0.60
2022-08-11T11:11:58.431Z,0.55
2022-08-11T11:14:58.260Z,0.68
2022-08-11T11:17:48.462Z,0.65
2022-08-11T11:20:34.497Z,0.77
2022-08-11T11:23:11.414Z,0.52
2022-08-11T11:26:07.316Z,0.50
2022-08-11T11:28:58.499Z,0.60
2022-08-11T11:31:37.056Z,0.50
2022-08-11T11:34:20.149Z,0.47
2022-08-11T11:36:51.446Z,0.63
2022-08-11T11:39:23.418Z,0.63
2022-08-11T11:41:55.458Z,0.50
2022-08-11T11:44:27.027Z,0.57
2022-08-11T11:46:56.887Z,0.70
2022-08-11T11:49:28.839Z,0.70
2022-08-11T11:51:59.833Z,0.70
2022-08-11T11:54:31.152Z,0.50
2022-08-11T11:57:23.296Z,0.50
2022-08-11T12:00:12.809Z,0.60
2022-08-11T12:02:43.018Z,0.60
2022-08-11T12:05:14.684Z,0.60
2022-08-11T12:08:10.487Z,0.50
2022-08-11T12:10:46.285Z,0.47
2022-08-11T12:13:33.817Z,0.68
2022-08-11T12:16:33.250Z,0.95
2022-08-11T12:18:57.941Z,0.30
2022-08-11T12:21:29.226Z,0.60
2022-08-11T12:24:18.505Z,0.73
2022-08-11T12:27:15.785Z,0.50
2022-08-11T12:29:54.534Z,0.73
2022-08-11T12:32:30.180Z,0.75
2022-08-11T12:34:59.558Z,0.50
2022-08-11T12:37:33.881Z,0.50
2022-08-11T12:41:11.315Z,0.52
2022-08-11T12:43:37.158Z,0.52
2022-08-11T12:46:11.577Z,0.50
2022-08-11T12:49:04.939Z,0.40
2022-08-11T12:52:14.521Z,0.65
2022-08-11T12:54:51.761Z,0.55
2022-08-11T12:57:45.010Z,0.50
2022-08-11T13:00:33.239Z,0.50
2022-08-11T13:03:21.145Z,0.47
2022-08-11T13:05:55.794Z,0.43
2022-08-11T13:08:26.483Z,0.30
2022-08-11T13:11:16.974Z,0.40
2022-08-11T13:13:54.866Z,0.50
2022-08-11T13:16:31.004Z,0.35
2022-08-11T13:19:02.923Z,0.80
2022-08-11T13:21:35.836Z,0.70
2022-08-11T13:24:07.819Z,0.60
2022-08-11T13:26:49.740Z,0.50
2022-08-11T13:29:24.925Z,0.75
2022-08-11T13:31:58.998Z,0.50
2022-08-11T13:34:33.486Z,0.43
2022-08-11T13:37:06.531Z,0.52
2022-08-11T13:39:39.840Z,0.80
2022-08-11T13:42:10.862Z,0.60
2022-08-11T13:44:42.891Z,0.55
2022-08-11T13:47:22.826Z,0.32
2022-08-11T13:49:54.552Z,0.60
2022-08-11T13:52:29.294Z,0.50
2022-08-11T13:55:01.139Z,0.47
2022-08-11T13:58:07.656Z,0.43
2022-08-11T14:00:28.287Z,0.50
2022-08-11T14:02:59.333Z,0.60
2022-08-11T14:05:32.576Z,0.55
2022-08-11T14:08:06.174Z,0.70
2022-08-11T14:10:38.905Z,0.80
2022-08-11T14:13:29.401Z,0.80
2022-08-11T14:16:18.471Z,0.60
2022-08-11T14:18:50.590Z,0.50
2022-08-11T14:21:40.645Z,0.60
2022-08-11T14:24:13.006Z,0.52
2022-08-11T14:26:44.217Z,0.80
2022-08-11T14:29:15.766Z,0.70
2022-08-11T14:31:47.189Z,0.77
2022-08-11T14:34:21.544Z,0.90
2022-08-11T14:36:54.519Z,0.80
2022-08-11T14:39:29.167Z,0.65
2022-08-11T14:42:19.516Z,0.60
2022-08-11T14:45:10.277Z,0.60
2022-08-11T14:47:44.455Z,0.70
2022-08-11T14:50:18.084Z,0.55
2022-08-11T14:52:52.213Z,0.70
2022-08-11T14:55:42.997Z,0.60
2022-08-11T14:58:16.507Z,0.65
2022-08-11T15:00:47.285Z,0.80
2022-08-11T15:03:16.446Z,0.75
2022-08-11T15:05:57.705Z,0.80
2022-08-11T15:08:48.495Z,0.70
2022-08-11T15:11:40.164Z,0.70
2022-08-11T15:14:11.582Z,0.80
2022-08-11T15:17:01.513Z,0.80
2022-08-11T15:19:40.479Z,0.60
2022-08-11T15:22:29.445Z,0.73
2022-08-11T15:25:00.404Z,0.60
2022-08-11T15:27:50.188Z,0.82
2022-08-11T15:30:37.303Z,0.73
2022-08-11T15:33:26.515Z,0.70
2022-08-11T15:36:15.090Z,0.70
2022-08-11T15:38:48.684Z,0.80
2022-08-11T15:41:54.606Z,1.10
2022-08-11T15:45:03.068Z,0.80
2022-08-11T15:47:41.658Z,0.80
2022-08-11T15:50:15.891Z,0.70
2022-08-11T15:52:53.852Z,0.70
2022-08-11T15:55:24.552Z,0.60
2022-08-11T15:58:13.898Z,0.60
2022-08-11T16:01:08.950Z,0.70
2022-08-11T16:04:09.009Z,0.60
2022-08-11T16:06:49.459Z,0.60
2022-08-11T16:09:48.106Z,0.80
2022-08-11T16:12:28.451Z,0.57
2022-08-11T16:15:20.108Z,0.50
2022-08-11T16:17:56.983Z,0.50
2022-08-11T16:20:30.369Z,0.50
2022-08-11T16:23:02.990Z,0.68
2022-08-11T16:27:04.996Z,0.65
2022-08-11T16:28:26.950Z,0.50
2022-08-11T16:30:57.811Z,0.80
2022-08-11T16:33:50.143Z,0.77
2022-08-11T16:36:36.219Z,0.85
2022-08-11T16:39:06.444Z,0.70
2022-08-11T16:41:55.026Z,0.70
2022-08-11T16:44:43.883Z,0.70
2022-08-11T16:47:16.254Z,0.73
2022-08-11T16:49:52.643Z,0.52
2022-08-11T16:52:23.537Z,0.50
2022-08-11T16:54:53.123Z,0.75
2022-08-11T16:57:43.103Z,0.70
2022-08-11T17:00:15.781Z,0.77
2022-08-11T17:03:05.659Z,0.68
2022-08-11T17:05:57.355Z,0.98
2022-08-11T17:08:56.607Z,0.77
2022-08-11T17:11:47.420Z,0.90
2022-08-11T17:14:36.024Z,1.08
2022-08-11T17:17:08.413Z,0.57
2022-08-11T17:20:42.019Z,0.90
2022-08-11T17:22:51.013Z,1.00
2022-08-11T17:25:21.413Z,0.73
2022-08-11T17:27:53.151Z,0.80
2022-08-11T17:30:23.077Z,0.80
2022-08-11T17:33:11.355Z,0.70
2022-08-11T17:35:44.679Z,0.70
2022-08-11T17:38:18.326Z,0.60
2022-08-11T17:41:04.476Z,0.65
2022-08-11T17:43:51.920Z,0.75
2022-08-11T17:46:39.721Z,0.68
2022-08-11T17:49:11.593Z,0.60
2022-08-11T17:52:01.568Z,0.60
2022-08-11T17:54:52.840Z,0.80
2022-08-11T17:57:50.720Z,0.63
2022-08-11T18:00:23.155Z,0.50
2022-08-11T18:03:16.153Z,0.70
2022-08-11T18:05:49.121Z,0.60
2022-08-11T18:08:37.742Z,0.68
2022-08-11T18:12:06.545Z,0.80
2022-08-11T18:14:36.479Z,0.90
2022-08-11T18:17:23.906Z,0.90
2022-08-11T18:20:10.704Z,0.85
2022-08-11T18:23:03.547Z,0.88
2022-08-11T18:25:57.529Z,0.77
2022-08-11T18:28:48.912Z,1.20
2022-08-11T18:31:36.919Z,0.65
2022-08-11T18:34:26.010Z,0.85
2022-08-11T18:37:30.557Z,0.80
2022-08-11T18:40:20.552Z,0.82
2022-08-11T18:43:09.726Z,2.40
2022-08-11T18:46:06.794Z,1.27
2022-08-11T18:48:56.827Z,0.98
2022-08-11T18:51:45.526Z,0.90
2022-08-11T18:54:34.630Z,1.05
2022-08-11T18:57:25.743Z,3.35
2022-08-11T19:00:13.333Z,1.30
2022-08-11T19:03:03.730Z,0.98
2022-08-11T19:06:37.108Z,0.80
2022-08-11T19:09:06.630Z,0.95
2022-08-11T19:11:55.601Z,1.00
2022-08-11T19:14:48.031Z,0.70
2022-08-11T19:17:44.491Z,1.02
2022-08-11T19:20:36.002Z,0.77
2022-08-11T19:23:27.276Z,0.55
2022-08-11T19:26:15.548Z,0.70
2022-08-11T19:29:05.648Z,2.20
2022-08-11T19:31:53.341Z,2.08
2022-08-11T19:34:42.947Z,0.80
2022-08-11T19:37:32.962Z,0.82
2022-08-11T19:40:24.696Z,0.88
2022-08-11T19:43:25.805Z,0.80
2022-08-11T19:46:15.751Z,0.77
2022-08-11T19:49:04.872Z,0.88
2022-08-11T19:51:54.602Z,0.73
2022-08-11T19:54:45.998Z,0.80
2022-08-11T19:57:39.295Z,0.88
2022-08-11T20:00:30.477Z,0.98
2022-08-11T20:03:18.971Z,0.98
2022-08-11T20:06:06.870Z,0.90
2022-08-11T20:08:58.663Z,0.70
2022-08-11T20:11:50.941Z,0.85
2022-08-11T20:14:39.965Z,0.60
2022-08-11T20:17:30.579Z,0.85
2022-08-11T20:20:18.572Z,0.82
2022-08-11T20:23:10.638Z,4.43
2022-08-11T20:26:08.384Z,8.18
2022-08-11T20:29:03.271Z,2.03
2022-08-11T20:31:51.015Z,0.98
2022-08-11T20:34:38.481Z,1.00
2022-08-11T20:37:26.767Z,0.85
2022-08-11T20:40:15.170Z,1.08
2022-08-11T20:43:03.375Z,0.90
2022-08-11T20:45:55.230Z,1.23
2022-08-11T20:48:46.020Z,1.42
2022-08-11T20:51:38.635Z,1.10
2022-08-11T20:54:43.420Z,0.80
2022-08-11T20:57:35.458Z,1.20
2022-08-11T21:00:40.052Z,0.80
2022-08-11T21:03:35.647Z,1.00
2022-08-11T21:06:33.490Z,1.10
2022-08-11T21:09:58.055Z,1.02
2022-08-11T21:12:35.105Z,1.13
2022-08-11T21:15:38.954Z,1.50
2022-08-11T21:18:35.481Z,1.30
2022-08-11T21:21:29.338Z,1.10
2022-08-11T21:24:37.203Z,1.23
2022-08-11T21:27:32.943Z,3.30
2022-08-11T21:30:20.869Z,4.53
2022-08-11T21:33:09.136Z,1.30
2022-08-11T21:35:57.938Z,2.15
2022-08-11T21:38:46.898Z,1.40
2022-08-11T21:41:34.733Z,1.00
2022-08-11T21:44:25.152Z,1.38
2022-08-11T21:47:17.354Z,1.40
2022-08-11T21:50:07.266Z,4.38
2022-08-11T21:52:55.964Z,3.42
2022-08-11T21:55:43.104Z,1.30
2022-08-11T21:58:30.438Z,1.20
2022-08-11T22:01:18.095Z,1.40
2022-08-11T22:04:06.010Z,1.20
2022-08-11T22:06:53.579Z,1.25
2022-08-11T22:09:41.982Z,1.45
2022-08-11T22:12:35.143Z,1.17
2022-08-11T22:15:29.788Z,1.40
2022-08-11T22:18:16.667Z,1.20
2022-08-11T22:21:04.136Z,1.15
2022-08-11T22:23:56.594Z,1.20
2022-08-11T22:26:47.490Z,1.50
2022-08-11T22:29:50.826Z,1.30
2022-08-11T22:32:40.408Z,1.35
2022-08-11T22:35:29.205Z,1.33
2022-08-11T22:38:17.905Z,1.58
2022-08-11T22:41:04.576Z,1.58
2022-08-11T22:43:52.842Z,1.20
2022-08-11T22:46:41.399Z,1.20
2022-08-11T22:49:29.343Z,1.70
2022-08-11T22:52:30.696Z,1.38
2022-08-11T22:55:18.866Z,1.40
2022-08-11T22:58:06.334Z,1.20
2022-08-11T23:00:55.544Z,1.48
2022-08-11T23:03:45.412Z,1.73
2022-08-11T23:06:34.062Z,1.75
2022-08-11T23:09:21.188Z,1.48
2022-08-11T23:12:10.484Z,1.63
2022-08-11T23:15:00.155Z,1.52
2022-08-11T23:17:48.545Z,2.17
2022-08-11T23:20:40.563Z,1.52
2022-08-11T23:23:37.721Z,2.15
2022-08-11T23:26:26.647Z,1.65
2022-08-11T23:29:17.765Z,1.67
2022-08-11T23:32:05.992Z,1.85
2022-08-11T23:35:03.541Z,1.50
2022-08-11T23:37:52.448Z,1.75
2022-08-11T23:40:39.314Z,1.92
2022-08-11T23:43:26.701Z,1.40
2022-08-11T23:46:13.636Z,1.35
2022-08-11T23:49:01.051Z,1.60
2022-08-11T23:51:50.295Z,1.73
2022-08-11T23:54:37.646Z,1.80
2022-08-11T23:57:24.573Z,1.60
